sensor_id;sensor_type;location;lat;lon;timestamp;P1;P2;P0
45700;PMS5003;36277;32.852;-116.998;2023-03-01T00:02:00;0.00;0.00;0.00
45700;PMS5003;36277;32.852;-116.998;2023-03-01T00:04:26;0.00;0.00;0.00
45700;PMS5003;36277;32.852;-116.998;2023-03-01T00:06:53;0.00;0.00;0.00
45700;PMS5003;36277;32.852;-116.998;2023-03-01T00:09:19;0.00;0.00;0.00
45700;PMS5003;36277;32.852;-116.998;2023-03-01T00:11:46;0.00;0.00;0.00
45700;PMS5003;36277;32.852;-116.998;2023-03-01T00:14:12;0.00;0.00;0.00
45700;PMS5003;36277;32.852;-116.998;2023-03-01T00:16:40;0.00;0.00;0.00
45700;PMS5003;36277;32.852;-116.998;2023-03-01T00:19:11;0.00;0.00;0.00
45700;PMS5003;36277;32.852;-116.998;2023-03-01T00:21:40;0.00;0.00;0.00
45700;PMS5003;36277;32.852;-116.998;2023-03-01T00:24:06;0.00;0.00;0.00
45700;PMS5003;36277;32.852;-116.998;2023-03-01T00:26:33;0.00;0.00;0.00
45700;PMS5003;36277;32.852;-116.998;2023-03-01T00:29:00;0.00;0.00;0.00
45700;PMS5003;36277;32.852;-116.998;2023-03-01T00:31:27;0.00;0.00;0.00
45700;PMS5003;36277;32.852;-116.998;2023-03-01T00:33:56;0.00;0.00;0.00
45700;PMS5003;36277;32.852;-116.998;2023-03-01T00:36:25;0.00;0.00;0.00
45700;PMS5003;36277;32.852;-116.998;2023-03-01T00:38:52;0.00;0.00;0.00
45700;PMS5003;36277;32.852;-116.998;2023-03-01T00:41:19;0.00;0.00;0.00
45700;PMS5003;36277;32.852;-116.998;2023-03-01T00:43:48;0.00;0.00;0.00
45700;PMS5003;36277;32.852;-116.998;2023-03-01T00:46:16;0.00;0.00;0.00
45700;PMS5003;36277;32.852;-116.998;2023-03-01T00:48:45;0.00;0.00;0.00
45700;PMS5003;36277;32.852;-116.998;2023-03-01T00:51:12;0.00;0.00;0.00
45700;PMS5003;36277;32.852;-116.998;2023-03-01T00:53:42;0.00;0.00;0.00
45700;PMS5003;36277;32.852;-116.998;2023-03-01T00:56:11;0.00;0.00;0.00
45700;PMS5003;36277;32.852;-116.998;2023-03-01T00:58:38;0.00;0.00;0.00
45700;PMS5003;36277;32.852;-116.998;2023-03-01T01:01:09;0.00;0.00;0.00
45700;PMS5003;36277;32.852;-116.998;2023-03-01T01:03:48;0.00;0.00;0.00
45700;PMS5003;36277;32.852;-116.998;2023-03-01T01:08:56;0.00;0.00;0.00
45700;PMS5003;36277;32.852;-116.998;2023-03-01T01:11:26;0.00;0.00;0.00
45700;PMS5003;36277;32.852;-116.998;2023-03-01T01:13:53;0.00;0.00;0.00
45700;PMS5003;36277;32.852;-116.998;2023-03-01T01:16:21;0.00;0.00;0.00
45700;PMS5003;36277;32.852;-116.998;2023-03-01T01:18:49;0.00;0.00;0.00
45700;PMS5003;36277;32.852;-116.998;2023-03-01T01:21:16;0.00;0.00;0.00
45700;PMS5003;36277;32.852;-116.998;2023-03-01T01:23:45;0.00;0.00;0.00
45700;PMS5003;36277;32.852;-116.998;2023-03-01T01:26:17;0.00;0.00;0.00
45700;PMS5003;36277;32.852;-116.998;2023-03-01T01:28:48;0.00;0.00;0.00
45700;PMS5003;36277;32.852;-116.998;2023-03-01T01:31:15;0.00;0.00;0.00
45700;PMS5003;36277;32.852;-116.998;2023-03-01T01:33:42;0.00;0.00;0.00
45700;PMS5003;36277;32.852;-116.998;2023-03-01T01:36:09;0.00;0.00;0.00
45700;PMS5003;36277;32.852;-116.998;2023-03-01T01:38:36;0.00;0.00;0.00
45700;PMS5003;36277;32.852;-116.998;2023-03-01T01:41:04;0.00;0.00;0.00
45700;PMS5003;36277;32.852;-116.998;2023-03-01T01:43:36;0.00;0.00;0.00
45700;PMS5003;36277;32.852;-116.998;2023-03-01T01:46:26;0.00;0.00;0.00
45700;PMS5003;36277;32.852;-116.998;2023-03-01T01:48:57;0.00;0.00;0.00
45700;PMS5003;36277;32.852;-116.998;2023-03-01T01:51:32;0.00;0.00;0.00
45700;PMS5003;36277;32.852;-116.998;2023-03-01T01:54:08;0.00;0.00;0.00
45700;PMS5003;36277;32.852;-116.998;2023-03-01T01:56:43;0.00;0.00;0.00
45700;PMS5003;36277;32.852;-116.998;2023-03-01T01:59:13;0.00;0.00;0.00
45700;PMS5003;36277;32.852;-116.998;2023-03-01T02:01:40;0.00;0.00;0.00
45700;PMS5003;36277;32.852;-116.998;2023-03-01T02:04:06;0.00;0.00;0.00
45700;PMS5003;36277;32.852;-116.998;2023-03-01T02:06:36;0.00;0.00;0.00
45700;PMS5003;36277;32.852;-116.998;2023-03-01T02:09:15;0.00;0.00;0.00
45700;PMS5003;36277;32.852;-116.998;2023-03-01T02:11:46;0.00;0.00;0.00
45700;PMS5003;36277;32.852;-116.998;2023-03-01T02:14:14;0.00;0.00;0.00
45700;PMS5003;36277;32.852;-116.998;2023-03-01T02:16:42;0.00;0.00;0.00
45700;PMS5003;36277;32.852;-116.998;2023-03-01T02:19:10;0.00;0.00;0.00
45700;PMS5003;36277;32.852;-116.998;2023-03-01T02:22:01;0.00;0.00;0.00
45700;PMS5003;36277;32.852;-116.998;2023-03-01T02:27:15;0.00;0.00;0.00
45700;PMS5003;36277;32.852;-116.998;2023-03-01T02:29:47;0.00;0.00;0.00
45700;PMS5003;36277;32.852;-116.998;2023-03-01T02:32:13;0.00;0.00;0.00
45700;PMS5003;36277;32.852;-116.998;2023-03-01T02:34:40;0.00;0.00;0.00
45700;PMS5003;36277;32.852;-116.998;2023-03-01T02:37:10;0.00;0.00;0.00
45700;PMS5003;36277;32.852;-116.998;2023-03-01T02:39:44;0.00;0.00;0.00
45700;PMS5003;36277;32.852;-116.998;2023-03-01T02:42:18;0.00;0.00;0.00
45700;PMS5003;36277;32.852;-116.998;2023-03-01T02:44:49;0.00;0.00;0.00
45700;PMS5003;36277;32.852;-116.998;2023-03-01T02:47:15;0.00;0.00;0.00
45700;PMS5003;36277;32.852;-116.998;2023-03-01T02:49:42;0.00;0.00;0.00
45700;PMS5003;36277;32.852;-116.998;2023-03-01T02:57:17;0.00;0.00;0.00
45700;PMS5003;36277;32.852;-116.998;2023-03-01T02:59:44;0.00;0.00;0.00
45700;PMS5003;36277;32.852;-116.998;2023-03-01T03:02:20;0.00;0.00;0.00
45700;PMS5003;36277;32.852;-116.998;2023-03-01T03:05:12;0.00;0.00;0.00
45700;PMS5003;36277;32.852;-116.998;2023-03-01T03:07:45;0.00;0.00;0.00
45700;PMS5003;36277;32.852;-116.998;2023-03-01T03:10:20;0.00;0.00;0.00
45700;PMS5003;36277;32.852;-116.998;2023-03-01T03:12:52;0.00;0.00;0.00
45700;PMS5003;36277;32.852;-116.998;2023-03-01T03:15:23;0.00;0.00;0.00
45700;PMS5003;36277;32.852;-116.998;2023-03-01T03:17:51;0.00;0.00;0.00
45700;PMS5003;36277;32.852;-116.998;2023-03-01T03:20:20;0.00;0.00;0.00
45700;PMS5003;36277;32.852;-116.998;2023-03-01T03:22:51;0.00;0.00;0.00
45700;PMS5003;36277;32.852;-116.998;2023-03-01T03:25:20;0.00;0.00;0.00
45700;PMS5003;36277;32.852;-116.998;2023-03-01T03:27:49;0.00;0.00;0.00
45700;PMS5003;36277;32.852;-116.998;2023-03-01T03:30:22;0.00;0.00;0.00
45700;PMS5003;36277;32.852;-116.998;2023-03-01T03:32:54;0.60;0.60;0.20
45700;PMS5003;36277;32.852;-116.998;2023-03-01T03:35:26;1.00;1.00;1.00
45700;PMS5003;36277;32.852;-116.998;2023-03-01T03:37:58;1.80;1.80;1.60
45700;PMS5003;36277;32.852;-116.998;2023-03-01T03:43:05;12.00;12.00;10.00
45700;PMS5003;36277;32.852;-116.998;2023-03-01T03:45:34;9.00;9.00;8.00
45700;PMS5003;36277;32.852;-116.998;2023-03-01T03:48:01;9.40;9.40;7.80
45700;PMS5003;36277;32.852;-116.998;2023-03-01T03:50:30;10.75;10.75;9.00
45700;PMS5003;36277;32.852;-116.998;2023-03-01T03:52:57;10.25;10.25;8.50
45700;PMS5003;36277;32.852;-116.998;2023-03-01T03:55:23;11.25;11.25;9.25
45700;PMS5003;36277;32.852;-116.998;2023-03-01T03:57:53;11.00;11.00;9.25
45700;PMS5003;36277;32.852;-116.998;2023-03-01T04:00:20;13.00;13.00;9.50
45700;PMS5003;36277;32.852;-116.998;2023-03-01T04:02:49;12.60;12.60;10.00
45700;PMS5003;36277;32.852;-116.998;2023-03-01T04:05:17;15.25;14.25;10.50
45700;PMS5003;36277;32.852;-116.998;2023-03-01T04:07:44;15.00;15.00;11.00
45700;PMS5003;36277;32.852;-116.998;2023-03-01T04:10:17;19.00;18.50;13.50
45700;PMS5003;36277;32.852;-116.998;2023-03-01T04:12:44;19.00;19.00;14.00
45700;PMS5003;36277;32.852;-116.998;2023-03-01T04:15:11;26.25;25.25;18.00
45700;PMS5003;36277;32.852;-116.998;2023-03-01T04:17:40;19.50;19.50;14.25
45700;PMS5003;36277;32.852;-116.998;2023-03-01T04:20:16;23.50;23.50;15.75
45700;PMS5003;36277;32.852;-116.998;2023-03-01T04:22:51;21.75;21.50;14.50
45700;PMS5003;36277;32.852;-116.998;2023-03-01T04:25:22;16.25;16.00;11.00
45700;PMS5003;36277;32.852;-116.998;2023-03-01T04:27:49;20.75;20.25;13.25
45700;PMS5003;36277;32.852;-116.998;2023-03-01T04:30:15;16.25;16.25;12.00
45700;PMS5003;36277;32.852;-116.998;2023-03-01T04:32:42;13.00;13.00;8.50
45700;PMS5003;36277;32.852;-116.998;2023-03-01T04:35:08;15.25;15.25;11.00
45700;PMS5003;36277;32.852;-116.998;2023-03-01T04:37:35;19.00;19.00;11.00
45700;PMS5003;36277;32.852;-116.998;2023-03-01T04:40:02;19.50;19.50;13.75
45700;PMS5003;36277;32.852;-116.998;2023-03-01T04:42:41;14.75;14.00;10.00
45700;PMS5003;36277;32.852;-116.998;2023-03-01T04:45:08;15.25;15.25;11.00
45700;PMS5003;36277;32.852;-116.998;2023-03-01T04:47:41;10.75;10.75;8.00
45700;PMS5003;36277;32.852;-116.998;2023-03-01T04:50:13;11.75;11.25;9.00
45700;PMS5003;36277;32.852;-116.998;2023-03-01T04:52:44;14.40;14.40;10.40
45700;PMS5003;36277;32.852;-116.998;2023-03-01T04:55:11;11.20;11.20;8.80
45700;PMS5003;36277;32.852;-116.998;2023-03-01T04:57:38;11.80;11.80;8.60
45700;PMS5003;36277;32.852;-116.998;2023-03-01T05:00:06;9.80;9.80;7.80
45700;PMS5003;36277;32.852;-116.998;2023-03-01T05:02:56;7.40;7.40;6.00
45700;PMS5003;36277;32.852;-116.998;2023-03-01T05:07:55;6.40;6.40;5.20
45700;PMS5003;36277;32.852;-116.998;2023-03-01T05:10:24;6.60;6.60;5.60
45700;PMS5003;36277;32.852;-116.998;2023-03-01T05:12:51;9.60;9.60;7.00
45700;PMS5003;36277;32.852;-116.998;2023-03-01T05:15:18;6.80;6.80;6.00
45700;PMS5003;36277;32.852;-116.998;2023-03-01T05:17:47;8.00;8.00;7.00
45700;PMS5003;36277;32.852;-116.998;2023-03-01T05:20:14;6.00;6.00;5.00
45700;PMS5003;36277;32.852;-116.998;2023-03-01T05:22:40;6.00;6.00;4.40
45700;PMS5003;36277;32.852;-116.998;2023-03-01T05:25:07;6.60;5.80;4.40
45700;PMS5003;36277;32.852;-116.998;2023-03-01T05:27:33;5.00;5.00;3.00
45700;PMS5003;36277;32.852;-116.998;2023-03-01T05:30:00;4.60;4.60;3.80
45700;PMS5003;36277;32.852;-116.998;2023-03-01T05:32:42;2.60;2.60;2.00
45700;PMS5003;36277;32.852;-116.998;2023-03-01T05:35:13;4.00;3.20;3.00
45700;PMS5003;36277;32.852;-116.998;2023-03-01T05:37:50;3.60;3.60;3.00
45700;PMS5003;36277;32.852;-116.998;2023-03-01T05:40:18;3.00;3.00;2.60
45700;PMS5003;36277;32.852;-116.998;2023-03-01T05:42:47;3.20;3.20;3.00
45700;PMS5003;36277;32.852;-116.998;2023-03-01T05:45:16;2.00;2.00;1.60
45700;PMS5003;36277;32.852;-116.998;2023-03-01T05:47:43;2.00;2.00;2.00
45700;PMS5003;36277;32.852;-116.998;2023-03-01T05:52:37;3.00;3.00;2.80
45700;PMS5003;36277;32.852;-116.998;2023-03-01T05:55:03;3.00;3.00;2.40
45700;PMS5003;36277;32.852;-116.998;2023-03-01T05:57:30;3.00;3.00;2.80
45700;PMS5003;36277;32.852;-116.998;2023-03-01T05:59:56;2.40;2.40;2.00
45700;PMS5003;36277;32.852;-116.998;2023-03-01T06:02:23;1.40;1.40;0.80
45700;PMS5003;36277;32.852;-116.998;2023-03-01T06:04:49;3.00;3.00;2.80
45700;PMS5003;36277;32.852;-116.998;2023-03-01T06:07:15;2.40;2.40;2.20
45700;PMS5003;36277;32.852;-116.998;2023-03-01T06:09:42;2.40;2.40;2.00
45700;PMS5003;36277;32.852;-116.998;2023-03-01T06:12:08;2.00;2.00;2.00
45700;PMS5003;36277;32.852;-116.998;2023-03-01T06:14:34;3.00;3.00;2.00
45700;PMS5003;36277;32.852;-116.998;2023-03-01T06:17:00;4.00;4.00;3.00
45700;PMS5003;36277;32.852;-116.998;2023-03-01T06:19:27;2.60;2.60;2.00
45700;PMS5003;36277;32.852;-116.998;2023-03-01T06:21:53;2.60;2.60;2.40
45700;PMS5003;36277;32.852;-116.998;2023-03-01T06:24:19;3.00;3.00;3.00
45700;PMS5003;36277;32.852;-116.998;2023-03-01T06:26:45;3.00;3.00;3.00
45700;PMS5003;36277;32.852;-116.998;2023-03-01T06:29:12;2.60;2.60;2.00
45700;PMS5003;36277;32.852;-116.998;2023-03-01T06:31:39;2.20;2.20;2.00
45700;PMS5003;36277;32.852;-116.998;2023-03-01T06:34:06;2.20;2.20;1.80
45700;PMS5003;36277;32.852;-116.998;2023-03-01T06:36:32;2.60;2.60;2.60
45700;PMS5003;36277;32.852;-116.998;2023-03-01T06:38:58;2.20;2.20;1.80
45700;PMS5003;36277;32.852;-116.998;2023-03-01T06:41:24;1.60;1.60;1.40
45700;PMS5003;36277;32.852;-116.998;2023-03-01T06:43:51;2.40;2.40;2.00
45700;PMS5003;36277;32.852;-116.998;2023-03-01T06:46:17;2.00;2.00;2.00
45700;PMS5003;36277;32.852;-116.998;2023-03-01T06:48:43;2.00;2.00;2.00
45700;PMS5003;36277;32.852;-116.998;2023-03-01T06:51:10;2.60;2.60;2.00
45700;PMS5003;36277;32.852;-116.998;2023-03-01T06:53:36;3.00;3.00;2.00
45700;PMS5003;36277;32.852;-116.998;2023-03-01T06:56:03;2.00;2.00;2.00
45700;PMS5003;36277;32.852;-116.998;2023-03-01T06:58:29;2.40;2.40;1.60
45700;PMS5003;36277;32.852;-116.998;2023-03-01T07:00:55;3.00;3.00;2.60
45700;PMS5003;36277;32.852;-116.998;2023-03-01T07:03:22;3.00;3.00;2.00
45700;PMS5003;36277;32.852;-116.998;2023-03-01T07:05:49;1.00;1.00;1.00
45700;PMS5003;36277;32.852;-116.998;2023-03-01T07:08:19;2.00;2.00;1.00
45700;PMS5003;36277;32.852;-116.998;2023-03-01T07:10:46;2.20;2.20;1.40
45700;PMS5003;36277;32.852;-116.998;2023-03-01T07:16:12;1.20;1.20;1.00
45700;PMS5003;36277;32.852;-116.998;2023-03-01T07:18:40;2.00;2.00;2.00
45700;PMS5003;36277;32.852;-116.998;2023-03-01T07:21:07;2.00;2.00;2.00
45700;PMS5003;36277;32.852;-116.998;2023-03-01T07:23:34;2.00;2.00;1.60
45700;PMS5003;36277;32.852;-116.998;2023-03-01T07:26:00;1.60;1.60;1.00
45700;PMS5003;36277;32.852;-116.998;2023-03-01T07:28:27;2.60;2.00;1.20
45700;PMS5003;36277;32.852;-116.998;2023-03-01T07:30:54;2.40;2.40;2.00
45700;PMS5003;36277;32.852;-116.998;2023-03-01T07:33:20;2.00;2.00;2.00
45700;PMS5003;36277;32.852;-116.998;2023-03-01T07:35:47;2.00;2.00;2.00
45700;PMS5003;36277;32.852;-116.998;2023-03-01T07:38:13;1.20;1.20;1.00
45700;PMS5003;36277;32.852;-116.998;2023-03-01T07:40:39;1.60;1.60;1.20
45700;PMS5003;36277;32.852;-116.998;2023-03-01T07:43:06;1.00;1.00;1.00
45700;PMS5003;36277;32.852;-116.998;2023-03-01T07:45:32;1.60;1.60;1.20
45700;PMS5003;36277;32.852;-116.998;2023-03-01T07:47:58;1.00;1.00;1.00
45700;PMS5003;36277;32.852;-116.998;2023-03-01T07:50:25;1.00;1.00;1.00
45700;PMS5003;36277;32.852;-116.998;2023-03-01T07:52:51;1.00;1.00;1.00
45700;PMS5003;36277;32.852;-116.998;2023-03-01T07:55:17;1.00;1.00;1.00
45700;PMS5003;36277;32.852;-116.998;2023-03-01T07:57:45;1.00;1.00;1.00
45700;PMS5003;36277;32.852;-116.998;2023-03-01T08:00:11;1.00;1.00;1.00
45700;PMS5003;36277;32.852;-116.998;2023-03-01T08:02:38;0.20;0.20;0.00
45700;PMS5003;36277;32.852;-116.998;2023-03-01T08:05:07;1.00;1.00;1.00
45700;PMS5003;36277;32.852;-116.998;2023-03-01T08:07:34;1.60;1.60;1.00
45700;PMS5003;36277;32.852;-116.998;2023-03-01T08:10:00;1.00;1.00;1.00
45700;PMS5003;36277;32.852;-116.998;2023-03-01T08:12:27;1.60;1.60;1.00
45700;PMS5003;36277;32.852;-116.998;2023-03-01T08:14:54;1.00;1.00;1.00
45700;PMS5003;36277;32.852;-116.998;2023-03-01T08:17:20;1.60;1.60;1.60
45700;PMS5003;36277;32.852;-116.998;2023-03-01T08:19:46;1.00;1.00;1.00
45700;PMS5003;36277;32.852;-116.998;2023-03-01T08:22:13;0.60;0.60;0.20
45700;PMS5003;36277;32.852;-116.998;2023-03-01T08:24:39;1.00;1.00;1.00
45700;PMS5003;36277;32.852;-116.998;2023-03-01T08:27:05;0.20;0.20;0.00
45700;PMS5003;36277;32.852;-116.998;2023-03-01T08:29:32;1.00;1.00;1.00
45700;PMS5003;36277;32.852;-116.998;2023-03-01T08:31:59;0.00;0.00;0.00
45700;PMS5003;36277;32.852;-116.998;2023-03-01T08:34:25;1.00;1.00;1.00
45700;PMS5003;36277;32.852;-116.998;2023-03-01T08:36:52;1.20;1.20;1.00
45700;PMS5003;36277;32.852;-116.998;2023-03-01T08:39:19;1.00;1.00;1.00
45700;PMS5003;36277;32.852;-116.998;2023-03-01T08:41:46;0.60;0.60;0.60
45700;PMS5003;36277;32.852;-116.998;2023-03-01T08:44:12;0.60;0.60;0.60
45700;PMS5003;36277;32.852;-116.998;2023-03-01T08:46:41;0.00;0.00;0.00
45700;PMS5003;36277;32.852;-116.998;2023-03-01T08:49:13;0.40;0.40;0.00
45700;PMS5003;36277;32.852;-116.998;2023-03-01T08:51:41;0.00;0.00;0.00
45700;PMS5003;36277;32.852;-116.998;2023-03-01T08:54:28;0.80;0.80;0.20
45700;PMS5003;36277;32.852;-116.998;2023-03-01T08:56:55;1.00;1.00;1.00
45700;PMS5003;36277;32.852;-116.998;2023-03-01T08:59:24;0.00;0.00;0.00
45700;PMS5003;36277;32.852;-116.998;2023-03-01T09:01:51;0.00;0.00;0.00
45700;PMS5003;36277;32.852;-116.998;2023-03-01T09:04:18;0.00;0.00;0.00
45700;PMS5003;36277;32.852;-116.998;2023-03-01T09:06:44;1.20;1.20;1.20
45700;PMS5003;36277;32.852;-116.998;2023-03-01T09:09:13;0.60;0.60;0.60
45700;PMS5003;36277;32.852;-116.998;2023-03-01T09:11:41;0.00;0.00;0.00
45700;PMS5003;36277;32.852;-116.998;2023-03-01T09:14:09;0.00;0.00;0.00
45700;PMS5003;36277;32.852;-116.998;2023-03-01T09:16:35;0.00;0.00;0.00
45700;PMS5003;36277;32.852;-116.998;2023-03-01T09:19:02;1.00;1.00;1.00
45700;PMS5003;36277;32.852;-116.998;2023-03-01T09:21:29;0.00;0.00;0.00
45700;PMS5003;36277;32.852;-116.998;2023-03-01T09:23:56;1.20;1.20;1.00
45700;PMS5003;36277;32.852;-116.998;2023-03-01T09:26:23;0.00;0.00;0.00
45700;PMS5003;36277;32.852;-116.998;2023-03-01T09:28:51;0.00;0.00;0.00
45700;PMS5003;36277;32.852;-116.998;2023-03-01T09:31:20;0.00;0.00;0.00
45700;PMS5003;36277;32.852;-116.998;2023-03-01T09:33:48;0.00;0.00;0.00
45700;PMS5003;36277;32.852;-116.998;2023-03-01T09:36:16;0.00;0.00;0.00
45700;PMS5003;36277;32.852;-116.998;2023-03-01T09:38:47;0.00;0.00;0.00
45700;PMS5003;36277;32.852;-116.998;2023-03-01T09:43:44;0.40;0.40;0.20
45700;PMS5003;36277;32.852;-116.998;2023-03-01T09:46:14;0.00;0.00;0.00
45700;PMS5003;36277;32.852;-116.998;2023-03-01T09:51:23;0.00;0.00;0.00
45700;PMS5003;36277;32.852;-116.998;2023-03-01T09:53:56;0.00;0.00;0.00
45700;PMS5003;36277;32.852;-116.998;2023-03-01T09:59:15;1.00;1.00;1.00
45700;PMS5003;36277;32.852;-116.998;2023-03-01T10:05:09;0.40;0.40;0.40
45700;PMS5003;36277;32.852;-116.998;2023-03-01T10:10:52;0.00;0.00;0.00
45700;PMS5003;36277;32.852;-116.998;2023-03-01T10:13:20;0.00;0.00;0.00
45700;PMS5003;36277;32.852;-116.998;2023-03-01T10:15:56;0.00;0.00;0.00
45700;PMS5003;36277;32.852;-116.998;2023-03-01T10:18:29;0.00;0.00;0.00
45700;PMS5003;36277;32.852;-116.998;2023-03-01T10:21:02;0.00;0.00;0.00
45700;PMS5003;36277;32.852;-116.998;2023-03-01T10:23:38;0.00;0.00;0.00
45700;PMS5003;36277;32.852;-116.998;2023-03-01T10:26:21;0.00;0.00;0.00
45700;PMS5003;36277;32.852;-116.998;2023-03-01T10:29:06;0.00;0.00;0.00
45700;PMS5003;36277;32.852;-116.998;2023-03-01T10:31:44;0.00;0.00;0.00
45700;PMS5003;36277;32.852;-116.998;2023-03-01T10:34:27;0.00;0.00;0.00
45700;PMS5003;36277;32.852;-116.998;2023-03-01T10:37:08;0.00;0.00;0.00
45700;PMS5003;36277;32.852;-116.998;2023-03-01T10:39:53;0.00;0.00;0.00
45700;PMS5003;36277;32.852;-116.998;2023-03-01T10:44:56;0.00;0.00;0.00
45700;PMS5003;36277;32.852;-116.998;2023-03-01T10:47:24;0.00;0.00;0.00
45700;PMS5003;36277;32.852;-116.998;2023-03-01T10:49:53;0.00;0.00;0.00
45700;PMS5003;36277;32.852;-116.998;2023-03-01T10:52:35;0.00;0.00;0.00
45700;PMS5003;36277;32.852;-116.998;2023-03-01T10:55:04;0.00;0.00;0.00
45700;PMS5003;36277;32.852;-116.998;2023-03-01T10:58:38;0.20;0.20;0.00
45700;PMS5003;36277;32.852;-116.998;2023-03-01T11:00:47;0.00;0.00;0.00
45700;PMS5003;36277;32.852;-116.998;2023-03-01T11:03:15;0.00;0.00;0.00
45700;PMS5003;36277;32.852;-116.998;2023-03-01T11:08:39;0.00;0.00;0.00
45700;PMS5003;36277;32.852;-116.998;2023-03-01T11:11:07;0.00;0.00;0.00
45700;PMS5003;36277;32.852;-116.998;2023-03-01T11:13:49;0.00;0.00;0.00
45700;PMS5003;36277;32.852;-116.998;2023-03-01T11:16:38;0.00;0.00;0.00
45700;PMS5003;36277;32.852;-116.998;2023-03-01T11:21:37;0.00;0.00;0.00
45700;PMS5003;36277;32.852;-116.998;2023-03-01T11:24:36;0.00;0.00;0.00
45700;PMS5003;36277;32.852;-116.998;2023-03-01T11:27:12;0.00;0.00;0.00
45700;PMS5003;36277;32.852;-116.998;2023-03-01T11:29:41;0.00;0.00;0.00
45700;PMS5003;36277;32.852;-116.998;2023-03-01T11:32:13;0.00;0.00;0.00
45700;PMS5003;36277;32.852;-116.998;2023-03-01T11:34:45;0.00;0.00;0.00
45700;PMS5003;36277;32.852;-116.998;2023-03-01T11:41:00;0.00;0.00;0.00
45700;PMS5003;36277;32.852;-116.998;2023-03-01T11:43:33;0.00;0.00;0.00
45700;PMS5003;36277;32.852;-116.998;2023-03-01T12:35:50;0.00;0.00;0.00
45700;PMS5003;36277;32.852;-116.998;2023-03-01T12:41:21;0.00;0.00;0.00
45700;PMS5003;36277;32.852;-116.998;2023-03-01T12:46:36;0.20;0.00;0.00
45700;PMS5003;36277;32.852;-116.998;2023-03-01T12:49:28;0.00;0.00;0.00
45700;PMS5003;36277;32.852;-116.998;2023-03-01T12:52:09;0.00;0.00;0.00
45700;PMS5003;36277;32.852;-116.998;2023-03-01T12:54:37;0.00;0.00;0.00
45700;PMS5003;36277;32.852;-116.998;2023-03-01T12:57:12;0.00;0.00;0.00
45700;PMS5003;36277;32.852;-116.998;2023-03-01T13:02:41;0.00;0.00;0.00
45700;PMS5003;36277;32.852;-116.998;2023-03-01T13:13:26;0.00;0.00;0.00
45700;PMS5003;36277;32.852;-116.998;2023-03-01T13:15:53;0.00;0.00;0.00
45700;PMS5003;36277;32.852;-116.998;2023-03-01T13:20:51;0.00;0.00;0.00
45700;PMS5003;36277;32.852;-116.998;2023-03-01T13:31:00;0.00;0.00;0.00
45700;PMS5003;36277;32.852;-116.998;2023-03-01T13:35:55;0.00;0.00;0.00
45700;PMS5003;36277;32.852;-116.998;2023-03-01T13:41:07;0.00;0.00;0.00
45700;PMS5003;36277;32.852;-116.998;2023-03-01T13:43:37;0.00;0.00;0.00
45700;PMS5003;36277;32.852;-116.998;2023-03-01T13:46:16;0.00;0.00;0.00
45700;PMS5003;36277;32.852;-116.998;2023-03-01T13:48:49;0.00;0.00;0.00
45700;PMS5003;36277;32.852;-116.998;2023-03-01T13:51:20;0.00;0.00;0.00
45700;PMS5003;36277;32.852;-116.998;2023-03-01T13:53:52;0.20;0.20;0.20
45700;PMS5003;36277;32.852;-116.998;2023-03-01T13:56:33;0.00;0.00;0.00
45700;PMS5003;36277;32.852;-116.998;2023-03-01T13:59:04;0.00;0.00;0.00
45700;PMS5003;36277;32.852;-116.998;2023-03-01T14:01:38;0.00;0.00;0.00
45700;PMS5003;36277;32.852;-116.998;2023-03-01T14:04:19;0.00;0.00;0.00
45700;PMS5003;36277;32.852;-116.998;2023-03-01T14:09:40;0.00;0.00;0.00
45700;PMS5003;36277;32.852;-116.998;2023-03-01T14:15:05;0.00;0.00;0.00
45700;PMS5003;36277;32.852;-116.998;2023-03-01T14:17:49;0.00;0.00;0.00
45700;PMS5003;36277;32.852;-116.998;2023-03-01T14:20:19;0.00;0.00;0.00
45700;PMS5003;36277;32.852;-116.998;2023-03-01T14:22:57;0.00;0.00;0.00
45700;PMS5003;36277;32.852;-116.998;2023-03-01T14:25:36;0.00;0.00;0.00
45700;PMS5003;36277;32.852;-116.998;2023-03-01T14:28:14;0.00;0.00;0.00
45700;PMS5003;36277;32.852;-116.998;2023-03-01T14:30:57;0.00;0.00;0.00
45700;PMS5003;36277;32.852;-116.998;2023-03-01T14:33:26;0.00;0.00;0.00
45700;PMS5003;36277;32.852;-116.998;2023-03-01T14:35:56;0.00;0.00;0.00
45700;PMS5003;36277;32.852;-116.998;2023-03-01T14:38:37;0.00;0.00;0.00
45700;PMS5003;36277;32.852;-116.998;2023-03-01T14:41:15;0.80;0.00;0.00
45700;PMS5003;36277;32.852;-116.998;2023-03-01T14:43:45;0.00;0.00;0.00
45700;PMS5003;36277;32.852;-116.998;2023-03-01T14:46:32;0.00;0.00;0.00
45700;PMS5003;36277;32.852;-116.998;2023-03-01T14:49:04;0.00;0.00;0.00
45700;PMS5003;36277;32.852;-116.998;2023-03-01T14:51:39;0.00;0.00;0.00
45700;PMS5003;36277;32.852;-116.998;2023-03-01T14:54:41;0.00;0.00;0.00
45700;PMS5003;36277;32.852;-116.998;2023-03-01T14:57:25;0.00;0.00;0.00
45700;PMS5003;36277;32.852;-116.998;2023-03-01T14:59:53;0.00;0.00;0.00
45700;PMS5003;36277;32.852;-116.998;2023-03-01T15:02:26;0.00;0.00;0.00
45700;PMS5003;36277;32.852;-116.998;2023-03-01T15:04:55;0.00;0.00;0.00
45700;PMS5003;36277;32.852;-116.998;2023-03-01T15:07:26;0.00;0.00;0.00
45700;PMS5003;36277;32.852;-116.998;2023-03-01T15:09:57;0.00;0.00;0.00
45700;PMS5003;36277;32.852;-116.998;2023-03-01T15:14:54;0.00;0.00;0.00
45700;PMS5003;36277;32.852;-116.998;2023-03-01T15:17:32;0.00;0.00;0.00
45700;PMS5003;36277;32.852;-116.998;2023-03-01T15:20:00;0.60;0.60;0.60
45700;PMS5003;36277;32.852;-116.998;2023-03-01T15:22:29;0.00;0.00;0.00
45700;PMS5003;36277;32.852;-116.998;2023-03-01T15:24:55;0.00;0.00;0.00
45700;PMS5003;36277;32.852;-116.998;2023-03-01T15:27:23;0.00;0.00;0.00
45700;PMS5003;36277;32.852;-116.998;2023-03-01T15:29:52;0.00;0.00;0.00
45700;PMS5003;36277;32.852;-116.998;2023-03-01T15:32:36;0.20;0.20;0.20
45700;PMS5003;36277;32.852;-116.998;2023-03-01T15:40:54;0.80;0.80;0.00
45700;PMS5003;36277;32.852;-116.998;2023-03-01T15:43:38;0.00;0.00;0.00
45700;PMS5003;36277;32.852;-116.998;2023-03-01T15:46:16;0.00;0.00;0.00
45700;PMS5003;36277;32.852;-116.998;2023-03-01T15:49:03;0.00;0.00;0.00
45700;PMS5003;36277;32.852;-116.998;2023-03-01T15:51:50;0.00;0.00;0.00
45700;PMS5003;36277;32.852;-116.998;2023-03-01T15:54:21;0.00;0.00;0.00
45700;PMS5003;36277;32.852;-116.998;2023-03-01T15:56:50;0.00;0.00;0.00
45700;PMS5003;36277;32.852;-116.998;2023-03-01T15:59:17;0.00;0.00;0.00
45700;PMS5003;36277;32.852;-116.998;2023-03-01T16:01:44;0.00;0.00;0.00
45700;PMS5003;36277;32.852;-116.998;2023-03-01T16:04:11;0.00;0.00;0.00
45700;PMS5003;36277;32.852;-116.998;2023-03-01T16:06:54;0.00;0.00;0.00
45700;PMS5003;36277;32.852;-116.998;2023-03-01T16:09:21;0.00;0.00;0.00
45700;PMS5003;36277;32.852;-116.998;2023-03-01T16:11:51;0.00;0.00;0.00
45700;PMS5003;36277;32.852;-116.998;2023-03-01T16:14:18;0.00;0.00;0.00
45700;PMS5003;36277;32.852;-116.998;2023-03-01T16:16:45;0.00;0.00;0.00
45700;PMS5003;36277;32.852;-116.998;2023-03-01T16:19:13;0.00;0.00;0.00
45700;PMS5003;36277;32.852;-116.998;2023-03-01T16:21:40;0.00;0.00;0.00
45700;PMS5003;36277;32.852;-116.998;2023-03-01T16:24:08;0.00;0.00;0.00
45700;PMS5003;36277;32.852;-116.998;2023-03-01T16:26:35;0.00;0.00;0.00